Time;durP1;ratioP1;P1;durP2;ratioP2;P2;SDS_P1;SDS_P2;PMS_P1;PMS_P2;Temp;Humidity;BMP_temperature;BMP_pressure;BME280_temperature;BME280_humidity;BME280_pressure;Samples;Min_cycle;Max_cycle;Signal;HPM_P1;HPM_P2
2022/07/16 00:01:25;;;;;;;4.38;1.30;;;;;;;;;;528143;28;725;-88
2022/07/16 00:01:41;;;;;;;5.68;1.52;;;;;;;;;;527845;28;1245;-88
2022/07/16 00:01:56;;;;;;;4.43;1.37;;;;;;;;;;528060;28;1345;-88
2022/07/16 00:02:11;;;;;;;4.40;1.30;;;;;;;;;;527920;28;1293;-88
2022/07/16 00:02:27;;;;;;;3.77;1.27;;;;;;;;;;525879;28;1166;-88
2022/07/16 00:02:43;;;;;;;3.47;1.20;;;;;;;;;;525969;28;886;-89
2022/07/16 00:02:58;;;;;;;3.75;1.40;;;;;;;;;;525892;28;803;-88
2022/07/16 00:03:13;;;;;;;3.53;1.50;;;;;;;;;;526007;28;1024;-88
2022/07/16 00:03:29;;;;;;;3.63;1.50;;;;;;;;;;524245;28;1112;-88
2022/07/16 00:03:44;;;;;;;4.53;1.63;;;;;;;;;;524295;28;867;-88
2022/07/16 00:04:01;;;;;;;5.27;1.57;;;;;;;;;;524453;28;1223;-88
2022/07/16 00:04:16;;;;;;;3.53;1.27;;;;;;;;;;526605;28;859;-88
2022/07/16 00:04:32;;;;;;;2.67;1.20;;;;;;;;;;528373;28;827;-88
2022/07/16 00:04:47;;;;;;;4.15;1.30;;;;;;;;;;526111;28;1299;-88
2022/07/16 00:05:03;;;;;;;4.20;1.40;;;;;;;;;;524108;28;1492;-88
2022/07/16 00:05:19;;;;;;;3.25;1.30;;;;;;;;;;524652;28;1280;-88
2022/07/16 00:05:34;;;;;;;3.58;1.20;;;;;;;;;;524231;28;1265;-89
2022/07/16 00:05:50;;;;;;;3.53;1.20;;;;;;;;;;524235;28;1170;-89
2022/07/16 00:06:05;;;;;;;3.08;1.30;;;;;;;;;;524429;28;1029;-88
2022/07/16 00:06:22;;;;;;;3.30;1.33;;;;;;;;;;524219;28;1282;-88
2022/07/16 00:06:37;;;;;;;3.75;1.40;;;;;;;;;;524196;28;1434;-88
2022/07/16 00:06:53;;;;;;;3.70;1.40;;;;;;;;;;524249;28;796;-88
2022/07/16 00:07:08;;;;;;;3.60;1.50;;;;;;;;;;524287;28;904;-88
2022/07/16 00:07:23;;;;;;;4.35;1.60;;;;;;;;;;522750;28;1186;-88
2022/07/16 00:07:39;;;;;;;4.13;1.63;;;;;;;;;;522282;28;1167;-88
2022/07/16 00:07:54;;;;;;;3.00;1.40;;;;;;;;;;520337;28;1186;-88
2022/07/16 00:08:11;;;;;;;3.67;1.27;;;;;;;;;;518792;28;1284;-89
2022/07/16 00:08:26;;;;;;;3.40;1.30;;;;;;;;;;520953;28;885;-89
2022/07/16 00:08:41;;;;;;;2.47;1.27;;;;;;;;;;521126;28;1481;-89
2022/07/16 00:08:57;;;;;;;3.87;1.40;;;;;;;;;;522547;28;1221;-88
2022/07/16 00:09:12;;;;;;;4.47;1.42;;;;;;;;;;522880;28;871;-88
2022/07/16 00:09:28;;;;;;;4.40;1.47;;;;;;;;;;522763;28;1268;-89
2022/07/16 00:09:43;;;;;;;3.55;1.40;;;;;;;;;;522253;28;1161;-88
2022/07/16 00:09:59;;;;;;;2.50;1.20;;;;;;;;;;522608;28;943;-89
2022/07/16 00:10:14;;;;;;;3.17;1.30;;;;;;;;;;524350;28;808;-88
2022/07/16 00:10:30;;;;;;;3.13;1.30;;;;;;;;;;525532;28;1418;-89
2022/07/16 00:10:48;;;;;;;2.65;1.33;;;;;;;;;;524604;28;1222;-88
2022/07/16 00:11:03;;;;;;;4.88;1.55;;;;;;;;;;526357;28;1119;-87
2022/07/16 00:11:20;;;;;;;4.87;1.40;;;;;;;;;;526249;28;1313;-88
2022/07/16 00:11:36;;;;;;;4.18;1.40;;;;;;;;;;527070;28;1397;-88
2022/07/16 00:11:51;;;;;;;4.93;1.60;;;;;;;;;;526203;28;1495;-88
2022/07/16 00:12:07;;;;;;;4.80;1.80;;;;;;;;;;525214;28;851;-88
2022/07/16 00:12:22;;;;;;;4.17;1.50;;;;;;;;;;524002;28;1503;-88
2022/07/16 00:12:37;;;;;;;3.15;1.40;;;;;;;;;;524415;28;990;-88
2022/07/16 00:12:53;;;;;;;2.93;1.40;;;;;;;;;;525199;28;892;-88
2022/07/16 00:13:09;;;;;;;3.67;1.50;;;;;;;;;;524296;28;1190;-88
2022/07/16 00:13:24;;;;;;;3.60;1.45;;;;;;;;;;524448;28;1902;-88
2022/07/16 00:13:40;;;;;;;3.57;1.50;;;;;;;;;;524350;28;1362;-88
2022/07/16 00:13:55;;;;;;;3.45;1.52;;;;;;;;;;526685;28;998;-88
2022/07/16 00:14:11;;;;;;;4.00;1.60;;;;;;;;;;524672;28;1180;-88
2022/07/16 00:14:26;;;;;;;4.05;1.60;;;;;;;;;;524478;28;863;-88
2022/07/16 00:14:42;;;;;;;3.10;1.50;;;;;;;;;;524363;28;1178;-89
2022/07/16 00:14:57;;;;;;;4.03;1.50;;;;;;;;;;522318;28;1280;-88
2022/07/16 00:15:13;;;;;;;4.77;1.60;;;;;;;;;;522335;28;840;-88
2022/07/16 00:15:29;;;;;;;3.65;1.60;;;;;;;;;;522650;28;979;-88
2022/07/16 00:15:45;;;;;;;2.72;1.48;;;;;;;;;;524433;28;1299;-88
2022/07/16 00:16:00;;;;;;;2.65;1.40;;;;;;;;;;524572;28;911;-88
2022/07/16 00:16:16;;;;;;;3.57;1.47;;;;;;;;;;526295;28;978;-88
2022/07/16 00:16:32;;;;;;;4.75;1.50;;;;;;;;;;527027;28;1061;-88
2022/07/16 00:16:47;;;;;;;3.58;1.35;;;;;;;;;;527084;28;1278;-88
2022/07/16 00:17:03;;;;;;;3.50;1.33;;;;;;;;;;528470;28;1308;-88
2022/07/16 00:17:19;;;;;;;4.50;1.48;;;;;;;;;;528669;28;819;-88
2022/07/16 00:17:34;;;;;;;4.35;1.58;;;;;;;;;;528873;27;1279;-88
2022/07/16 00:19:15;;;;;;;4.37;1.63;;;;;;;;;;530516;27;1317;-88
2022/07/16 00:19:19;;;;;;;3.72;1.40;;;;;;;;;;530707;27;724;-87
2022/07/16 00:19:35;;;;;;;3.63;1.58;;;;;;;;;;528541;28;1368;-88
2022/07/16 00:19:50;;;;;;;3.53;1.60;;;;;;;;;;528354;28;1256;-88
2022/07/16 00:20:06;;;;;;;3.00;1.50;;;;;;;;;;528791;28;847;-87
2022/07/16 00:20:22;;;;;;;3.22;1.50;;;;;;;;;;528148;28;1355;-88
2022/07/16 00:20:37;;;;;;;3.90;1.52;;;;;;;;;;526530;28;926;-87
2022/07/16 00:20:53;;;;;;;3.93;1.60;;;;;;;;;;526524;28;1271;-89
2022/07/16 00:21:08;;;;;;;3.47;1.60;;;;;;;;;;525578;28;1181;-88
2022/07/16 00:21:24;;;;;;;3.15;1.50;;;;;;;;;;526526;28;910;-88
2022/07/16 00:21:40;;;;;;;4.13;1.50;;;;;;;;;;524953;28;1271;-88
2022/07/16 00:21:56;;;;;;;4.27;1.60;;;;;;;;;;527464;28;883;-88
2022/07/16 00:22:12;;;;;;;2.75;1.60;;;;;;;;;;528575;28;1304;-88
2022/07/16 00:22:27;;;;;;;2.38;1.45;;;;;;;;;;526449;28;1181;-88
2022/07/16 00:22:43;;;;;;;3.23;1.40;;;;;;;;;;524405;28;1214;-88
2022/07/16 00:22:58;;;;;;;4.47;1.53;;;;;;;;;;524499;28;1021;-88
2022/07/16 00:23:14;;;;;;;4.07;1.60;;;;;;;;;;524445;28;1369;-88
2022/07/16 00:23:29;;;;;;;3.38;1.50;;;;;;;;;;524009;28;1480;-88
2022/07/16 00:23:45;;;;;;;3.93;1.43;;;;;;;;;;524325;28;895;-87
2022/07/16 00:24:00;;;;;;;4.03;1.50;;;;;;;;;;524202;28;1326;-88
2022/07/16 00:24:16;;;;;;;3.63;1.50;;;;;;;;;;524583;28;1250;-88
2022/07/16 00:24:32;;;;;;;4.35;1.50;;;;;;;;;;526855;28;1092;-88
2022/07/16 00:24:47;;;;;;;3.13;1.40;;;;;;;;;;526353;28;1196;-88
2022/07/16 00:25:04;;;;;;;2.43;1.23;;;;;;;;;;525765;28;1163;-88
2022/07/16 00:25:19;;;;;;;3.65;1.38;;;;;;;;;;524849;28;974;-87
2022/07/16 00:25:35;;;;;;;4.43;1.60;;;;;;;;;;526272;28;812;-88
2022/07/16 00:25:50;;;;;;;3.42;1.50;;;;;;;;;;524228;28;1316;-88
2022/07/16 00:26:06;;;;;;;2.53;1.40;;;;;;;;;;522485;28;1182;-88
2022/07/16 00:26:22;;;;;;;3.00;1.30;;;;;;;;;;524255;28;1046;-88
2022/07/16 00:26:37;;;;;;;3.63;1.40;;;;;;;;;;524676;28;966;-87
2022/07/16 00:26:53;;;;;;;3.00;1.30;;;;;;;;;;526849;28;859;-88
2022/07/16 00:27:08;;;;;;;2.05;1.13;;;;;;;;;;526341;28;1185;-88
2022/07/16 00:27:24;;;;;;;3.37;1.20;;;;;;;;;;526285;28;1149;-88
2022/07/16 00:27:39;;;;;;;4.75;1.48;;;;;;;;;;526104;28;1395;-88
2022/07/16 00:27:54;;;;;;;4.27;1.43;;;;;;;;;;524296;28;1142;-88
2022/07/16 00:28:10;;;;;;;4.10;1.47;;;;;;;;;;522176;28;1160;-87
2022/07/16 00:28:25;;;;;;;3.35;1.48;;;;;;;;;;522774;28;1210;-87
2022/07/16 00:28:41;;;;;;;3.57;1.40;;;;;;;;;;524413;28;963;-88
2022/07/16 00:28:56;;;;;;;4.57;1.40;;;;;;;;;;524599;28;899;-88
2022/07/16 00:29:11;;;;;;;3.47;1.40;;;;;;;;;;524125;28;1183;-88
2022/07/16 00:29:27;;;;;;;3.00;1.30;;;;;;;;;;524235;28;1147;-88
2022/07/16 00:29:42;;;;;;;3.42;1.30;;;;;;;;;;524284;28;1416;-88
2022/07/16 00:29:58;;;;;;;3.33;1.40;;;;;;;;;;524278;28;1343;-88
2022/07/16 00:30:13;;;;;;;2.93;1.40;;;;;;;;;;526294;28;1210;-87
2022/07/16 00:30:29;;;;;;;2.95;1.42;;;;;;;;;;526518;28;1401;-88
2022/07/16 00:30:44;;;;;;;3.35;1.50;;;;;;;;;;526381;28;1217;-88
2022/07/16 00:31:00;;;;;;;3.40;1.40;;;;;;;;;;524347;28;1216;-88
2022/07/16 00:31:15;;;;;;;3.17;1.30;;;;;;;;;;524424;28;1175;-88
2022/07/16 00:31:31;;;;;;;3.67;1.43;;;;;;;;;;522237;28;1269;-88
2022/07/16 00:31:47;;;;;;;3.40;1.40;;;;;;;;;;523607;28;824;-88
2022/07/16 00:32:03;;;;;;;2.70;1.30;;;;;;;;;;524265;28;811;-88
2022/07/16 00:32:19;;;;;;;2.50;1.30;;;;;;;;;;524775;28;1338;-88
2022/07/16 00:32:34;;;;;;;2.00;1.20;;;;;;;;;;526708;28;1006;-88
2022/07/16 00:32:49;;;;;;;3.25;1.38;;;;;;;;;;528303;28;1180;-88
2022/07/16 00:33:05;;;;;;;3.67;1.40;;;;;;;;;;526314;28;1226;-88
2022/07/16 00:33:20;;;;;;;2.90;1.40;;;;;;;;;;523845;28;1913;-88
2022/07/16 00:33:36;;;;;;;3.57;1.40;;;;;;;;;;522183;28;1308;-88
2022/07/16 00:33:51;;;;;;;4.35;1.30;;;;;;;;;;522168;28;1574;-88
2022/07/16 00:34:07;;;;;;;4.43;1.30;;;;;;;;;;522387;28;891;-88
2022/07/16 00:34:23;;;;;;;3.97;1.35;;;;;;;;;;524131;28;852;-88
2022/07/16 00:34:38;;;;;;;3.90;1.40;;;;;;;;;;524187;28;1093;-88
2022/07/16 00:34:54;;;;;;;3.97;1.50;;;;;;;;;;524479;28;788;-88
2022/07/16 00:35:09;;;;;;;2.53;1.40;;;;;;;;;;528788;28;907;-88
2022/07/16 00:35:24;;;;;;;2.53;1.38;;;;;;;;;;528376;28;1170;-88
2022/07/16 00:35:40;;;;;;;3.30;1.50;;;;;;;;;;528799;27;1307;-88
2022/07/16 00:35:55;;;;;;;3.63;1.57;;;;;;;;;;528870;28;938;-88
2022/07/16 00:36:11;;;;;;;4.38;1.50;;;;;;;;;;526462;28;1194;-88
2022/07/16 00:36:26;;;;;;;5.17;1.43;;;;;;;;;;526538;28;899;-88
2022/07/16 00:36:42;;;;;;;3.97;1.48;;;;;;;;;;525642;28;1246;-88
2022/07/16 00:36:57;;;;;;;3.95;1.42;;;;;;;;;;526432;28;1202;-88
2022/07/16 00:37:13;;;;;;;3.43;1.37;;;;;;;;;;526540;28;789;-88
2022/07/16 00:37:28;;;;;;;2.40;1.30;;;;;;;;;;526690;28;1314;-88
2022/07/16 00:37:43;;;;;;;3.78;1.38;;;;;;;;;;528502;28;1210;-87
2022/07/16 00:37:59;;;;;;;4.20;1.40;;;;;;;;;;529028;27;890;-88
2022/07/16 00:38:14;;;;;;;4.38;1.48;;;;;;;;;;528265;28;1254;-88
2022/07/16 00:38:30;;;;;;;3.70;1.40;;;;;;;;;;526222;28;1312;-88
2022/07/16 00:38:45;;;;;;;2.78;1.27;;;;;;;;;;523552;28;1249;-88
2022/07/16 00:39:01;;;;;;;4.27;1.33;;;;;;;;;;522367;28;789;-88
2022/07/16 00:39:17;;;;;;;4.10;1.40;;;;;;;;;;522334;28;1260;-88
2022/07/16 00:39:32;;;;;;;3.97;1.30;;;;;;;;;;522381;28;1255;-87
2022/07/16 00:39:47;;;;;;;4.20;1.30;;;;;;;;;;524671;28;1273;-88
2022/07/16 00:40:03;;;;;;;4.40;1.57;;;;;;;;;;522332;28;1190;-88
2022/07/16 00:40:19;;;;;;;3.60;1.42;;;;;;;;;;520252;28;1345;-88
2022/07/16 00:40:34;;;;;;;3.05;1.38;;;;;;;;;;520090;28;1370;-89
2022/07/16 00:40:50;;;;;;;3.70;1.50;;;;;;;;;;523807;28;1151;-88
2022/07/16 00:41:05;;;;;;;3.75;1.40;;;;;;;;;;524424;28;876;-88
2022/07/16 00:41:21;;;;;;;4.77;1.30;;;;;;;;;;526357;28;1252;-87
2022/07/16 00:41:38;;;;;;;3.85;1.33;;;;;;;;;;523012;28;1302;-88
2022/07/16 00:41:54;;;;;;;3.20;1.50;;;;;;;;;;522125;28;1215;-88
2022/07/16 00:42:09;;;;;;;3.78;1.50;;;;;;;;;;522906;28;825;-88
2022/07/16 00:42:25;;;;;;;4.33;1.30;;;;;;;;;;525562;28;1223;-88
2022/07/16 00:42:40;;;;;;;3.90;1.40;;;;;;;;;;526186;28;1369;-88
2022/07/16 00:42:56;;;;;;;2.95;1.30;;;;;;;;;;526206;28;1247;-88
2022/07/16 00:43:12;;;;;;;3.07;1.20;;;;;;;;;;526760;28;910;-88
2022/07/16 00:43:28;;;;;;;3.00;1.10;;;;;;;;;;528212;28;1325;-88
2022/07/16 00:43:51;;;;;;;3.53;1.30;;;;;;;;;;528385;28;1297;-88
2022/07/16 00:44:09;;;;;;;2.40;1.20;;;;;;;;;;526655;28;1067;-88
2022/07/16 00:44:24;;;;;;;2.55;1.20;;;;;;;;;;526000;28;1367;-88
2022/07/16 00:44:40;;;;;;;3.07;1.40;;;;;;;;;;524378;28;951;-88
2022/07/16 00:44:56;;;;;;;3.70;1.40;;;;;;;;;;527751;28;832;-88
2022/07/16 00:45:11;;;;;;;3.47;1.20;;;;;;;;;;528336;28;859;-88
2022/07/16 00:45:27;;;;;;;3.50;1.33;;;;;;;;;;528447;28;871;-88
2022/07/16 00:45:42;;;;;;;3.67;1.50;;;;;;;;;;527991;28;1281;-88
2022/07/16 00:45:58;;;;;;;3.03;1.40;;;;;;;;;;528361;28;1208;-88
2022/07/16 00:46:14;;;;;;;3.58;1.20;;;;;;;;;;526403;28;1303;-88
2022/07/16 00:46:30;;;;;;;3.58;1.20;;;;;;;;;;525068;28;1360;-88
2022/07/16 00:46:48;;;;;;;3.30;1.30;;;;;;;;;;524227;28;1139;-88
2022/07/16 00:47:04;;;;;;;4.05;1.38;;;;;;;;;;522316;28;1276;-88
2022/07/16 00:47:19;;;;;;;4.17;1.33;;;;;;;;;;520245;28;1211;-87
2022/07/16 00:47:34;;;;;;;3.08;1.17;;;;;;;;;;520312;28;852;-87
2022/07/16 00:47:50;;;;;;;2.67;1.20;;;;;;;;;;522219;28;1198;-88
2022/07/16 00:48:05;;;;;;;3.15;1.30;;;;;;;;;;523895;28;796;-88
2022/07/16 00:48:21;;;;;;;3.87;1.20;;;;;;;;;;526530;28;918;-88
2022/07/16 00:48:36;;;;;;;3.97;1.25;;;;;;;;;;524268;28;1422;-88
2022/07/16 00:48:52;;;;;;;3.03;1.23;;;;;;;;;;524513;28;979;-88
2022/07/16 00:49:08;;;;;;;4.23;1.30;;;;;;;;;;526690;28;883;-88
2022/07/16 00:49:24;;;;;;;4.13;1.30;;;;;;;;;;526394;28;1440;-87
2022/07/16 00:49:39;;;;;;;3.35;1.45;;;;;;;;;;526661;28;1273;-88
2022/07/16 00:49:54;;;;;;;3.47;1.40;;;;;;;;;;526375;28;934;-88
2022/07/16 00:50:10;;;;;;;4.13;1.33;;;;;;;;;;526496;28;883;-88
2022/07/16 00:50:25;;;;;;;3.65;1.35;;;;;;;;;;524977;28;1441;-88
2022/07/16 00:50:41;;;;;;;3.17;1.30;;;;;;;;;;524346;28;1158;-87
2022/07/16 00:50:56;;;;;;;3.35;1.30;;;;;;;;;;522095;28;1261;-88
2022/07/16 00:51:13;;;;;;;3.30;1.40;;;;;;;;;;522337;28;1169;-88
2022/07/16 00:51:29;;;;;;;3.72;1.40;;;;;;;;;;523337;28;1484;-88
2022/07/16 00:51:51;;;;;;;2.65;1.23;;;;;;;;;;523867;28;1489;-88
2022/07/16 00:52:07;;;;;;;2.45;1.10;;;;;;;;;;522151;28;1493;-88
2022/07/16 00:52:23;;;;;;;2.78;1.30;;;;;;;;;;523805;28;914;-88
2022/07/16 00:52:39;;;;;;;3.15;1.27;;;;;;;;;;521887;28;1263;-88
2022/07/16 00:52:54;;;;;;;2.80;1.23;;;;;;;;;;521955;28;1332;-89
2022/07/16 00:53:11;;;;;;;2.73;1.20;;;;;;;;;;525623;28;879;-88
2022/07/16 00:53:26;;;;;;;3.42;1.35;;;;;;;;;;526275;28;1937;-88
2022/07/16 00:53:43;;;;;;;3.13;1.47;;;;;;;;;;524091;28;1276;-88
2022/07/16 00:53:59;;;;;;;3.00;1.30;;;;;;;;;;524913;28;867;-88
2022/07/16 00:54:15;;;;;;;3.00;1.30;;;;;;;;;;526169;28;1296;-88
2022/07/16 00:54:31;;;;;;;3.70;1.30;;;;;;;;;;524984;28;1254;-88
2022/07/16 00:54:46;;;;;;;3.73;1.30;;;;;;;;;;528832;27;1174;-87
2022/07/16 00:55:03;;;;;;;3.58;1.40;;;;;;;;;;528163;28;1235;-88
2022/07/16 00:55:18;;;;;;;3.92;1.40;;;;;;;;;;526211;28;1222;-87
2022/07/16 00:55:34;;;;;;;3.33;1.30;;;;;;;;;;524628;28;800;-88
2022/07/16 00:55:49;;;;;;;3.15;1.40;;;;;;;;;;523879;28;1222;-88
2022/07/16 00:56:12;;;;;;;3.00;1.40;;;;;;;;;;522640;28;1202;-88
2022/07/16 00:56:28;;;;;;;3.90;1.40;;;;;;;;;;523935;28;1452;-88
2022/07/16 00:56:43;;;;;;;3.55;1.30;;;;;;;;;;528351;27;1341;-88
2022/07/16 00:56:59;;;;;;;3.03;1.30;;;;;;;;;;528558;27;1562;-88
2022/07/16 00:57:15;;;;;;;3.60;1.30;;;;;;;;;;525543;28;1304;-88
2022/07/16 00:57:30;;;;;;;3.75;1.40;;;;;;;;;;526207;28;828;-88
2022/07/16 00:57:46;;;;;;;2.87;1.40;;;;;;;;;;524048;28;1284;-87
2022/07/16 00:58:02;;;;;;;3.95;1.38;;;;;;;;;;522164;28;1236;-88
2022/07/16 00:58:17;;;;;;;3.93;1.27;;;;;;;;;;519996;28;1249;-88
2022/07/16 00:58:32;;;;;;;3.30;1.33;;;;;;;;;;520517;28;920;-88
2022/07/16 00:58:49;;;;;;;4.10;1.40;;;;;;;;;;523528;28;1154;-88
2022/07/16 00:59:05;;;;;;;3.20;1.38;;;;;;;;;;524955;28;1093;-88
2022/07/16 00:59:21;;;;;;;2.75;1.40;;;;;;;;;;526410;28;935;-88
2022/07/16 00:59:36;;;;;;;4.63;1.33;;;;;;;;;;523658;28;1339;-87
2022/07/16 00:59:51;;;;;;;5.35;1.40;;;;;;;;;;522727;28;1167;-88
2022/07/16 01:00:08;;;;;;;4.47;1.40;;;;;;;;;;522187;28;1232;-89
2022/07/16 01:00:24;;;;;;;4.60;1.38;;;;;;;;;;520704;28;1437;-87
2022/07/16 01:00:39;;;;;;;4.15;1.48;;;;;;;;;;520668;28;1151;-88
2022/07/16 01:00:55;;;;;;;3.70;1.50;;;;;;;;;;520057;28;1378;-87
2022/07/16 01:01:11;;;;;;;3.33;1.40;;;;;;;;;;521992;28;1304;-88
2022/07/16 01:01:27;;;;;;;3.13;1.40;;;;;;;;;;521999;28;1347;-88
2022/07/16 01:01:42;;;;;;;2.97;1.30;;;;;;;;;;524083;28;1293;-88
2022/07/16 01:01:57;;;;;;;3.55;1.40;;;;;;;;;;524116;28;1279;-89
2022/07/16 01:02:13;;;;;;;3.60;1.30;;;;;;;;;;524199;28;1290;-88
2022/07/16 01:02:28;;;;;;;3.33;1.40;;;;;;;;;;524377;28;1157;-88
2022/07/16 01:02:43;;;;;;;3.97;1.50;;;;;;;;;;524043;28;1195;-88
2022/07/16 01:03:00;;;;;;;3.43;1.30;;;;;;;;;;526009;28;1167;-88
2022/07/16 01:03:15;;;;;;;2.80;1.23;;;;;;;;;;522087;28;978;-88
2022/07/16 01:03:32;;;;;;;3.30;1.27;;;;;;;;;;522405;28;919;-88
2022/07/16 01:03:49;;;;;;;2.85;1.35;;;;;;;;;;526674;28;876;-88
2022/07/16 01:04:06;;;;;;;3.03;1.40;;;;;;;;;;526307;28;1308;-88
2022/07/16 01:04:22;;;;;;;3.42;1.30;;;;;;;;;;526278;28;867;-89
2022/07/16 01:04:38;;;;;;;4.07;1.35;;;;;;;;;;527506;28;1018;-88
2022/07/16 01:04:53;;;;;;;3.97;1.40;;;;;;;;;;529647;27;854;-88
2022/07/16 01:05:10;;;;;;;3.60;1.40;;;;;;;;;;530709;27;859;-88
2022/07/16 01:05:26;;;;;;;3.53;1.42;;;;;;;;;;528583;28;863;-88
2022/07/16 01:05:41;;;;;;;3.53;1.30;;;;;;;;;;528487;28;1043;-88
2022/07/16 01:05:57;;;;;;;3.33;1.10;;;;;;;;;;527273;28;1285;-88
2022/07/16 01:06:13;;;;;;;2.90;1.20;;;;;;;;;;527965;28;1166;-87
2022/07/16 01:06:29;;;;;;;3.45;1.42;;;;;;;;;;528272;28;930;-88
2022/07/16 01:06:45;;;;;;;3.08;1.30;;;;;;;;;;526110;28;1150;-87
2022/07/16 01:07:02;;;;;;;3.25;1.25;;;;;;;;;;524813;28;792;-88
2022/07/16 01:07:18;;;;;;;2.92;1.35;;;;;;;;;;524451;28;904;-88
2022/07/16 01:07:33;;;;;;;3.47;1.40;;;;;;;;;;524363;28;1337;-87
2022/07/16 01:07:49;;;;;;;4.57;1.30;;;;;;;;;;523045;28;1150;-88
2022/07/16 01:08:05;;;;;;;3.53;1.23;;;;;;;;;;524308;28;1230;-88
2022/07/16 01:08:21;;;;;;;2.35;1.25;;;;;;;;;;524455;28;907;-88
2022/07/16 01:08:39;;;;;;;2.87;1.30;;;;;;;;;;524083;28;1151;-88
2022/07/16 01:08:56;;;;;;;3.92;1.40;;;;;;;;;;524211;28;1282;-88
2022/07/16 01:09:12;;;;;;;6.18;1.65;;;;;;;;;;524039;28;1218;-88
2022/07/16 01:09:29;;;;;;;5.18;1.50;;;;;;;;;;525115;28;1268;-88
2022/07/16 01:09:47;;;;;;;3.45;1.38;;;;;;;;;;527620;28;871;-88
2022/07/16 01:10:04;;;;;;;4.15;1.45;;;;;;;;;;526929;28;839;-88
2022/07/16 01:10:21;;;;;;;4.57;1.55;;;;;;;;;;524453;28;1417;-88
2022/07/16 01:10:36;;;;;;;4.78;1.58;;;;;;;;;;526245;28;1300;-88
2022/07/16 01:10:53;;;;;;;4.32;1.40;;;;;;;;;;525802;28;1159;-88
2022/07/16 01:11:11;;;;;;;3.78;1.33;;;;;;;;;;528265;28;923;-88
2022/07/16 01:11:27;;;;;;;3.80;1.42;;;;;;;;;;528508;28;1352;-89
2022/07/16 01:11:44;;;;;;;4.60;1.42;;;;;;;;;;526200;28;1367;-88
2022/07/16 01:11:59;;;;;;;4.00;1.27;;;;;;;;;;524100;28;1229;-87
2022/07/16 01:12:16;;;;;;;3.37;1.30;;;;;;;;;;525553;28;776;-88
2022/07/16 01:12:31;;;;;;;4.55;1.30;;;;;;;;;;526107;28;1404;-87
2022/07/16 01:12:47;;;;;;;4.63;1.27;;;;;;;;;;524348;28;933;-88
2022/07/16 01:13:03;;;;;;;2.92;1.30;;;;;;;;;;524332;28;900;-87
2022/07/16 01:13:19;;;;;;;3.75;1.40;;;;;;;;;;527117;28;1918;-87
2022/07/16 01:13:35;;;;;;;4.30;1.40;;;;;;;;;;525349;28;1142;-88
2022/07/16 01:13:50;;;;;;;3.35;1.40;;;;;;;;;;526927;28;1027;-88
2022/07/16 01:14:07;;;;;;;3.50;1.40;;;;;;;;;;526047;28;1181;-88
2022/07/16 01:14:23;;;;;;;3.70;1.40;;;;;;;;;;527534;28;1522;-88
2022/07/16 01:14:39;;;;;;;3.43;1.30;;;;;;;;;;525981;28;1183;-88
2022/07/16 01:14:56;;;;;;;2.65;1.20;;;;;;;;;;526278;28;935;-88
2022/07/16 01:15:12;;;;;;;2.25;1.23;;;;;;;;;;524756;28;949;-87
2022/07/16 01:15:27;;;;;;;3.03;1.30;;;;;;;;;;525055;28;1266;-88
2022/07/16 01:15:43;;;;;;;3.50;1.33;;;;;;;;;;526348;28;812;-88
2022/07/16 01:15:58;;;;;;;3.00;1.30;;;;;;;;;;527436;28;1171;-88
2022/07/16 01:16:14;;;;;;;3.53;1.23;;;;;;;;;;526992;28;1194;-88
2022/07/16 01:16:30;;;;;;;3.28;1.17;;;;;;;;;;528421;28;1081;-88
2022/07/16 01:16:45;;;;;;;1.83;1.10;;;;;;;;;;526966;28;1258;-88
2022/07/16 01:17:01;;;;;;;2.80;1.30;;;;;;;;;;526299;28;1205;-88
2022/07/16 01:17:16;;;;;;;2.83;1.20;;;;;;;;;;526396;28;855;-88
2022/07/16 01:17:32;;;;;;;3.03;1.10;;;;;;;;;;525873;28;875;-88
2022/07/16 01:17:47;;;;;;;3.28;1.10;;;;;;;;;;524644;28;1407;-88
2022/07/16 01:18:03;;;;;;;2.83;1.30;;;;;;;;;;526738;28;1298;-88
2022/07/16 01:18:18;;;;;;;2.97;1.30;;;;;;;;;;528304;28;1146;-88
2022/07/16 01:18:34;;;;;;;3.92;1.40;;;;;;;;;;526454;28;808;-88
2022/07/16 01:18:50;;;;;;;5.03;1.40;;;;;;;;;;526906;28;914;-87
2022/07/16 01:19:08;;;;;;;4.55;1.30;;;;;;;;;;526375;28;1266;-88
2022/07/16 01:19:23;;;;;;;3.60;1.30;;;;;;;;;;524230;28;1206;-88
2022/07/16 01:19:39;;;;;;;3.22;1.33;;;;;;;;;;524237;28;1166;-88
2022/07/16 01:19:54;;;;;;;3.67;1.40;;;;;;;;;;522143;28;1236;-88
2022/07/16 01:20:11;;;;;;;4.27;1.37;;;;;;;;;;524682;28;840;-88
2022/07/16 01:20:26;;;;;;;4.10;1.40;;;;;;;;;;526459;28;1233;-88
2022/07/16 01:20:42;;;;;;;3.38;1.33;;;;;;;;;;524135;28;1198;-88
2022/07/16 01:20:58;;;;;;;3.47;1.40;;;;;;;;;;521138;28;1253;-88
2022/07/16 01:21:15;;;;;;;3.60;1.50;;;;;;;;;;520549;28;1445;-88
2022/07/16 01:21:31;;;;;;;3.83;1.40;;;;;;;;;;522093;28;1398;-88
2022/07/16 01:21:46;;;;;;;4.07;1.37;;;;;;;;;;524542;28;998;-88
2022/07/16 01:22:01;;;;;;;3.30;1.40;;;;;;;;;;524204;28;1361;-88
2022/07/16 01:22:21;;;;;;;2.40;1.30;;;;;;;;;;522193;28;1221;-87
2022/07/16 01:22:38;;;;;;;2.60;1.27;;;;;;;;;;523257;28;893;-88
2022/07/16 01:22:54;;;;;;;3.08;1.30;;;;;;;;;;522186;28;1436;-88
2022/07/16 01:23:10;;;;;;;4.10;1.33;;;;;;;;;;523618;28;1045;-88
2022/07/16 01:23:26;;;;;;;3.55;1.20;;;;;;;;;;525413;28;1329;-88
2022/07/16 01:23:42;;;;;;;3.13;1.30;;;;;;;;;;524255;28;1187;-88
2022/07/16 01:23:57;;;;;;;3.58;1.30;;;;;;;;;;522130;28;1321;-88
2022/07/16 01:24:13;;;;;;;3.90;1.40;;;;;;;;;;523593;28;963;-88
2022/07/16 01:24:28;;;;;;;3.45;1.33;;;;;;;;;;523938;28;1265;-88
2022/07/16 01:24:44;;;;;;;3.37;1.20;;;;;;;;;;522484;28;1333;-87
2022/07/16 01:24:59;;;;;;;4.03;1.40;;;;;;;;;;521782;28;1234;-88
2022/07/16 01:25:15;;;;;;;4.37;1.40;;;;;;;;;;522720;28;912;-89
2022/07/16 01:25:30;;;;;;;4.25;1.40;;;;;;;;;;522522;28;1352;-88
2022/07/16 01:25:46;;;;;;;3.40;1.27;;;;;;;;;;523312;28;1141;-88
2022/07/16 01:26:01;;;;;;;3.10;1.30;;;;;;;;;;522266;28;1271;-88
2022/07/16 01:26:17;;;;;;;3.37;1.40;;;;;;;;;;522568;28;979;-88
2022/07/16 01:26:32;;;;;;;4.35;1.48;;;;;;;;;;524672;28;864;-88
2022/07/16 01:26:47;;;;;;;4.37;1.40;;;;;;;;;;526315;28;872;-88
2022/07/16 01:27:04;;;;;;;4.43;1.33;;;;;;;;;;526097;28;1174;-87
2022/07/16 01:27:20;;;;;;;3.22;1.30;;;;;;;;;;524299;28;1213;-88
2022/07/16 01:27:36;;;;;;;3.08;1.45;;;;;;;;;;524679;28;1273;-88
2022/07/16 01:27:51;;;;;;;3.37;1.40;;;;;;;;;;526853;28;1171;-88
2022/07/16 01:28:06;;;;;;;3.03;1.30;;;;;;;;;;528520;28;994;-89
2022/07/16 01:28:22;;;;;;;3.30;1.20;;;;;;;;;;528376;28;963;-88
2022/07/16 01:28:38;;;;;;;3.05;1.20;;;;;;;;;;526424;28;1189;-88
2022/07/16 01:28:53;;;;;;;4.05;1.40;;;;;;;;;;526302;28;815;-88
2022/07/16 01:29:08;;;;;;;4.30;1.50;;;;;;;;;;524397;28;1334;-88
2022/07/16 01:29:24;;;;;;;4.37;1.50;;;;;;;;;;524767;28;1448;-88
2022/07/16 01:29:40;;;;;;;5.43;1.50;;;;;;;;;;524008;28;1417;-87
2022/07/16 01:29:55;;;;;;;4.70;1.50;;;;;;;;;;525476;28;1476;-88
2022/07/16 01:30:11;;;;;;;2.67;1.30;;;;;;;;;;524248;28;1270;-88
2022/07/16 01:30:26;;;;;;;2.58;1.20;;;;;;;;;;526292;28;1227;-88
2022/07/16 01:30:42;;;;;;;3.00;1.30;;;;;;;;;;524085;28;1150;-88
2022/07/16 01:30:58;;;;;;;3.60;1.50;;;;;;;;;;524356;28;956;-88
2022/07/16 01:31:13;;;;;;;3.30;1.42;;;;;;;;;;524258;28;1179;-88
2022/07/16 01:31:29;;;;;;;4.37;1.30;;;;;;;;;;522864;28;1216;-88
2022/07/16 01:31:44;;;;;;;4.97;1.30;;;;;;;;;;524683;28;946;-88
2022/07/16 01:31:59;;;;;;;3.90;1.40;;;;;;;;;;525887;28;1240;-89
2022/07/16 01:32:15;;;;;;;3.73;1.43;;;;;;;;;;524399;28;1179;-88
2022/07/16 01:32:30;;;;;;;3.60;1.40;;;;;;;;;;524149;28;1355;-88
2022/07/16 01:32:46;;;;;;;3.40;1.30;;;;;;;;;;524151;28;1259;-88
2022/07/16 01:33:33;;;;;;;4.07;1.40;;;;;;;;;;524110;28;863;-88
2022/07/16 01:34:24;;;;;;;2.88;1.23;;;;;;;;;;522122;28;1362;-88
2022/07/16 01:34:27;;;;;;;3.10;1.30;;;;;;;;;;525060;28;884;-88
2022/07/16 01:34:42;;;;;;;3.63;1.30;;;;;;;;;;527338;28;1258;-88
2022/07/16 01:34:58;;;;;;;3.20;1.20;;;;;;;;;;526074;28;1419;-88
2022/07/16 01:35:13;;;;;;;3.28;1.35;;;;;;;;;;524012;28;1306;-89
2022/07/16 01:35:28;;;;;;;4.70;1.50;;;;;;;;;;524035;28;1328;-88
2022/07/16 01:35:44;;;;;;;4.50;1.43;;;;;;;;;;525278;28;1146;-88
2022/07/16 01:36:03;;;;;;;4.03;1.40;;;;;;;;;;526147;28;994;-88
2022/07/16 01:36:18;;;;;;;3.58;1.50;;;;;;;;;;526159;28;1192;-88
2022/07/16 01:36:34;;;;;;;4.17;1.60;;;;;;;;;;526147;28;990;-88
2022/07/16 01:36:56;;;;;;;4.63;1.40;;;;;;;;;;524124;28;1277;-88
2022/07/16 01:37:14;;;;;;;3.08;1.30;;;;;;;;;;524135;28;872;-88
2022/07/16 01:37:30;;;;;;;3.88;1.50;;;;;;;;;;526458;28;959;-87
2022/07/16 01:37:45;;;;;;;4.63;1.38;;;;;;;;;;528716;28;894;-87
2022/07/16 01:38:01;;;;;;;4.60;1.40;;;;;;;;;;528758;28;974;-88
2022/07/16 01:38:17;;;;;;;3.50;1.40;;;;;;;;;;530619;27;911;-88
2022/07/16 01:38:33;;;;;;;3.47;1.35;;;;;;;;;;530572;27;927;-87
2022/07/16 01:38:48;;;;;;;3.95;1.38;;;;;;;;;;531231;27;863;-88
2022/07/16 01:39:04;;;;;;;4.00;1.40;;;;;;;;;;530388;27;1161;-88
2022/07/16 01:39:20;;;;;;;3.13;1.38;;;;;;;;;;530390;27;1185;-88
2022/07/16 01:39:39;;;;;;;3.00;1.40;;;;;;;;;;527919;28;1346;-88
2022/07/16 01:39:54;;;;;;;3.08;1.35;;;;;;;;;;527819;28;1272;-88
2022/07/16 01:40:10;;;;;;;3.43;1.47;;;;;;;;;;528537;28;859;-88
2022/07/16 01:40:25;;;;;;;3.47;1.48;;;;;;;;;;526112;28;1455;-88
2022/07/16 01:40:41;;;;;;;2.77;1.30;;;;;;;;;;526204;28;1427;-87
2022/07/16 01:40:57;;;;;;;2.45;1.25;;;;;;;;;;527175;28;792;-88
2022/07/16 01:41:13;;;;;;;3.13;1.30;;;;;;;;;;528360;28;1030;-88
2022/07/16 01:41:28;;;;;;;4.20;1.40;;;;;;;;;;527250;28;916;-87
2022/07/16 01:41:55;;;;;;;3.67;1.30;;;;;;;;;;526261;28;1298;-88